sensor_id;sensor_type;location;lat;lon;timestamp;pressure;altitude;pressure_sealevel;temperature;humidity
51972;BME280;37991;49.662;10.060;2022-08-04T00:02:02;99129.16;;;19.46;66.60
51972;BME280;37991;49.662;10.060;2022-08-04T00:04:47;99132.16;;;19.43;66.53
51972;BME280;37991;49.662;10.060;2022-08-04T00:07:19;99133.16;;;19.42;66.97
51972;BME280;37991;49.662;10.060;2022-08-04T00:09:48;99133.34;;;19.32;66.86
51972;BME280;37991;49.662;10.060;2022-08-04T00:12:15;99140.00;;;19.28;67.01
51972;BME280;37991;49.662;10.060;2022-08-04T00:14:52;99134.22;;;19.24;67.22
51972;BME280;37991;49.662;10.060;2022-08-04T00:17:25;99139.50;;;19.16;67.61
51972;BME280;37991;49.662;10.060;2022-08-04T00:20:00;99140.69;;;19.22;67.74
51972;BME280;37991;49.662;10.060;2022-08-04T00:22:27;99130.22;;;19.20;67.64
51972;BME280;37991;49.662;10.060;2022-08-04T00:24:54;99134.53;;;19.13;67.83
51972;BME280;37991;49.662;10.060;2022-08-04T00:27:20;99130.72;;;19.08;68.03
51972;BME280;37991;49.662;10.060;2022-08-04T00:29:46;99126.94;;;19.02;68.43
51972;BME280;37991;49.662;10.060;2022-08-04T00:32:12;99124.59;;;18.99;68.53
51972;BME280;37991;49.662;10.060;2022-08-04T00:34:37;99130.25;;;18.96;68.18
51972;BME280;37991;49.662;10.060;2022-08-04T00:37:04;99127.59;;;18.96;68.35
51972;BME280;37991;49.662;10.060;2022-08-04T00:39:30;99129.41;;;18.95;68.40
51972;BME280;37991;49.662;10.060;2022-08-04T00:47:55;99119.44;;;18.81;68.90
51972;BME280;37991;49.662;10.060;2022-08-04T00:53:12;99121.09;;;18.82;69.29
51972;BME280;37991;49.662;10.060;2022-08-04T00:56:01;99118.75;;;18.71;69.37
51972;BME280;37991;49.662;10.060;2022-08-04T01:01:01;99125.72;;;18.72;69.49
51972;BME280;37991;49.662;10.060;2022-08-04T01:04:03;99125.22;;;18.68;69.68
51972;BME280;37991;49.662;10.060;2022-08-04T01:06:44;99126.22;;;18.67;69.51
51972;BME280;37991;49.662;10.060;2022-08-04T01:12:34;99124.53;;;18.58;69.83
51972;BME280;37991;49.662;10.060;2022-08-04T01:20:31;99121.38;;;18.46;70.18
51972;BME280;37991;49.662;10.060;2022-08-04T01:26:12;99125.00;;;18.37;70.64
51972;BME280;37991;49.662;10.060;2022-08-04T01:31:40;99126.81;;;18.36;70.65
51972;BME280;37991;49.662;10.060;2022-08-04T01:34:10;99131.13;;;18.29;71.17
51972;BME280;37991;49.662;10.060;2022-08-04T01:36:43;99129.63;;;18.27;71.20
51972;BME280;37991;49.662;10.060;2022-08-04T01:39:09;99131.13;;;18.29;71.11
51972;BME280;37991;49.662;10.060;2022-08-04T01:41:55;99131.06;;;18.21;71.32
51972;BME280;37991;49.662;10.060;2022-08-04T01:44:22;99120.81;;;18.18;71.44
51972;BME280;37991;49.662;10.060;2022-08-04T01:46:49;99129.06;;;18.15;71.57
51972;BME280;37991;49.662;10.060;2022-08-04T01:49:16;99120.28;;;18.06;71.75
51972;BME280;37991;49.662;10.060;2022-08-04T01:51:43;99121.75;;;18.09;71.82
51972;BME280;37991;49.662;10.060;2022-08-04T01:54:09;99118.09;;;18.02;72.14
51972;BME280;37991;49.662;10.060;2022-08-04T01:56:35;99128.69;;;18.02;71.94
51972;BME280;37991;49.662;10.060;2022-08-04T01:59:02;99129.19;;;17.97;72.28
51972;BME280;37991;49.662;10.060;2022-08-04T02:01:28;99128.69;;;17.94;72.50
51972;BME280;37991;49.662;10.060;2022-08-04T02:03:53;99117.56;;;17.90;72.41
51972;BME280;37991;49.662;10.060;2022-08-04T02:11:29;99123.03;;;17.88;72.62
51972;BME280;37991;49.662;10.060;2022-08-04T02:14:24;99118.34;;;17.82;72.86
51972;BME280;37991;49.662;10.060;2022-08-04T02:17:25;99125.78;;;17.79;73.28
51972;BME280;37991;49.662;10.060;2022-08-04T02:20:06;99129.94;;;17.81;73.06
51972;BME280;37991;49.662;10.060;2022-08-04T02:22:35;99126.91;;;17.76;73.54
51972;BME280;37991;49.662;10.060;2022-08-04T02:25:06;99124.44;;;17.75;73.43
51972;BME280;37991;49.662;10.060;2022-08-04T02:30:17;99124.53;;;17.65;73.89
51972;BME280;37991;49.662;10.060;2022-08-04T02:32:43;99126.38;;;17.64;74.13
51972;BME280;37991;49.662;10.060;2022-08-04T02:37:36;99120.22;;;17.64;73.69
51972;BME280;37991;49.662;10.060;2022-08-04T02:40:04;99124.19;;;17.60;74.09
51972;BME280;37991;49.662;10.060;2022-08-04T02:42:31;99112.25;;;17.56;74.30
51972;BME280;37991;49.662;10.060;2022-08-04T02:44:58;99115.03;;;17.54;74.23
51972;BME280;37991;49.662;10.060;2022-08-04T02:47:25;99117.53;;;17.56;74.21
51972;BME280;37991;49.662;10.060;2022-08-04T02:49:51;99112.38;;;17.54;74.29
51972;BME280;37991;49.662;10.060;2022-08-04T02:52:19;99106.06;;;17.47;74.48
51972;BME280;37991;49.662;10.060;2022-08-04T02:54:46;99111.69;;;17.44;74.72
51972;BME280;37991;49.662;10.060;2022-08-04T02:57:14;99103.72;;;17.44;74.58
51972;BME280;37991;49.662;10.060;2022-08-04T03:02:55;99104.72;;;17.43;74.77
51972;BME280;37991;49.662;10.060;2022-08-04T03:08:40;99109.44;;;17.31;74.94
51972;BME280;37991;49.662;10.060;2022-08-04T03:22:52;99114.03;;;17.21;75.01
51972;BME280;37991;49.662;10.060;2022-08-04T03:28:23;99121.44;;;17.17;75.11
51972;BME280;37991;49.662;10.060;2022-08-04T03:44:48;99132.56;;;17.03;75.07
51972;BME280;37991;49.662;10.060;2022-08-04T03:50:33;99125.25;;;16.97;75.42
51972;BME280;37991;49.662;10.060;2022-08-04T03:53:24;99124.28;;;16.98;75.00
51972;BME280;37991;49.662;10.060;2022-08-04T03:56:22;99122.47;;;16.99;74.98
51972;BME280;37991;49.662;10.060;2022-08-04T04:01:44;99120.56;;;16.91;75.09
51972;BME280;37991;49.662;10.060;2022-08-04T04:12:56;99124.97;;;16.82;75.21
51972;BME280;37991;49.662;10.060;2022-08-04T04:15:50;99124.81;;;16.84;75.15
51972;BME280;37991;49.662;10.060;2022-08-04T04:29:41;99127.22;;;16.77;75.83
51972;BME280;37991;49.662;10.060;2022-08-04T04:32:23;99126.84;;;16.72;76.06
51972;BME280;37991;49.662;10.060;2022-08-04T04:35:45;99127.41;;;16.76;76.24
51972;BME280;37991;49.662;10.060;2022-08-04T04:46:47;99132.38;;;17.23;75.19
51972;BME280;37991;49.662;10.060;2022-08-04T04:48:59;99130.91;;;17.20;74.86
51972;BME280;37991;49.662;10.060;2022-08-04T04:51:35;99136.19;;;17.20;74.94
51972;BME280;37991;49.662;10.060;2022-08-04T04:55:03;99134.69;;;17.17;75.59
51972;BME280;37991;49.662;10.060;2022-08-04T04:57:15;99132.03;;;17.17;75.42
51972;BME280;37991;49.662;10.060;2022-08-04T04:59:48;99135.72;;;17.25;75.66
51972;BME280;37991;49.662;10.060;2022-08-04T05:02:35;99138.56;;;17.31;75.58
51972;BME280;37991;49.662;10.060;2022-08-04T05:13:15;99128.34;;;17.36;76.11
51972;BME280;37991;49.662;10.060;2022-08-04T05:15:45;99121.06;;;17.38;76.25
51972;BME280;37991;49.662;10.060;2022-08-04T05:18:17;99134.16;;;17.40;76.59
51972;BME280;37991;49.662;10.060;2022-08-04T05:20:50;99127.03;;;17.40;76.60
51972;BME280;37991;49.662;10.060;2022-08-04T05:23:21;99127.41;;;17.46;76.65
51972;BME280;37991;49.662;10.060;2022-08-04T05:25:52;99126.78;;;17.52;76.74
51972;BME280;37991;49.662;10.060;2022-08-04T05:28:24;99130.94;;;17.54;77.06
51972;BME280;37991;49.662;10.060;2022-08-04T05:30:59;99136.91;;;17.56;77.32
51972;BME280;37991;49.662;10.060;2022-08-04T05:33:31;99134.16;;;17.66;77.18
51972;BME280;37991;49.662;10.060;2022-08-04T05:35:59;99133.97;;;17.67;77.79
51972;BME280;37991;49.662;10.060;2022-08-04T05:38:30;99136.47;;;17.69;77.86
51972;BME280;37991;49.662;10.060;2022-08-04T05:40:58;99143.66;;;17.77;78.19
51972;BME280;37991;49.662;10.060;2022-08-04T05:43:24;99140.88;;;17.78;78.47
51972;BME280;37991;49.662;10.060;2022-08-04T05:45:57;99137.06;;;17.81;78.80
51972;BME280;37991;49.662;10.060;2022-08-04T05:48:24;99142.56;;;17.87;78.88
51972;BME280;37991;49.662;10.060;2022-08-04T05:50:51;99145.56;;;17.93;78.95
51972;BME280;37991;49.662;10.060;2022-08-04T05:53:18;99145.22;;;17.96;79.25
51972;BME280;37991;49.662;10.060;2022-08-04T05:55:45;99143.47;;;18.04;78.79
51972;BME280;37991;49.662;10.060;2022-08-04T05:58:10;99144.66;;;18.10;79.01
51972;BME280;37991;49.662;10.060;2022-08-04T06:00:37;99146.66;;;18.16;79.04
51972;BME280;37991;49.662;10.060;2022-08-04T06:03:06;99152.97;;;18.23;78.67
51972;BME280;37991;49.662;10.060;2022-08-04T06:05:34;99139.75;;;18.31;78.76
51972;BME280;37991;49.662;10.060;2022-08-04T06:07:59;99137.59;;;18.43;78.45
51972;BME280;37991;49.662;10.060;2022-08-04T06:10:25;99135.81;;;18.52;78.31
51972;BME280;37991;49.662;10.060;2022-08-04T06:12:54;99133.69;;;18.64;78.20
51972;BME280;37991;49.662;10.060;2022-08-04T06:15:23;99131.72;;;18.74;77.46
51972;BME280;37991;49.662;10.060;2022-08-04T06:17:54;99122.94;;;18.81;77.83
51972;BME280;37991;49.662;10.060;2022-08-04T06:20:23;99128.25;;;18.90;77.50
51972;BME280;37991;49.662;10.060;2022-08-04T06:22:54;99132.72;;;19.05;76.41
51972;BME280;37991;49.662;10.060;2022-08-04T06:25:25;99138.03;;;19.22;75.46
51972;BME280;37991;49.662;10.060;2022-08-04T06:27:53;99135.00;;;19.33;75.35
51972;BME280;37991;49.662;10.060;2022-08-04T06:30:19;99133.16;;;19.50;73.94
51972;BME280;37991;49.662;10.060;2022-08-04T06:32:50;99143.59;;;19.68;73.24
51972;BME280;37991;49.662;10.060;2022-08-04T06:35:23;99139.22;;;19.83;72.71
51972;BME280;37991;49.662;10.060;2022-08-04T06:37:51;99134.88;;;19.98;72.87
51972;BME280;37991;49.662;10.060;2022-08-04T06:40:19;99136.22;;;20.26;71.35
51972;BME280;37991;49.662;10.060;2022-08-04T06:42:47;99136.19;;;20.65;69.58
51972;BME280;37991;49.662;10.060;2022-08-04T06:45:13;99141.31;;;21.12;67.87
51972;BME280;37991;49.662;10.060;2022-08-04T06:47:40;99136.72;;;21.59;65.94
51972;BME280;37991;49.662;10.060;2022-08-04T06:50:08;99131.56;;;22.02;64.92
51972;BME280;37991;49.662;10.060;2022-08-04T06:52:34;99132.25;;;22.40;63.79
51972;BME280;37991;49.662;10.060;2022-08-04T06:55:00;99130.56;;;22.75;62.74
51972;BME280;37991;49.662;10.060;2022-08-04T06:57:26;99126.34;;;23.09;61.65
51972;BME280;37991;49.662;10.060;2022-08-04T06:59:57;99135.88;;;23.47;60.18
51972;BME280;37991;49.662;10.060;2022-08-04T07:02:25;99131.16;;;23.77;59.34
51972;BME280;37991;49.662;10.060;2022-08-04T07:04:52;99128.63;;;24.03;58.53
51972;BME280;37991;49.662;10.060;2022-08-04T07:07:18;99132.03;;;24.39;57.45
51972;BME280;37991;49.662;10.060;2022-08-04T07:09:44;99123.50;;;24.70;56.75
51972;BME280;37991;49.662;10.060;2022-08-04T07:12:10;99119.38;;;25.00;56.21
51972;BME280;37991;49.662;10.060;2022-08-04T07:14:38;99109.50;;;25.34;55.46
51972;BME280;37991;49.662;10.060;2022-08-04T07:17:05;99111.50;;;25.65;54.83
51972;BME280;37991;49.662;10.060;2022-08-04T07:19:33;99111.91;;;25.82;53.77
51972;BME280;37991;49.662;10.060;2022-08-04T07:22:00;99112.00;;;26.14;53.34
51972;BME280;37991;49.662;10.060;2022-08-04T07:24:33;99105.59;;;26.53;52.68
51972;BME280;37991;49.662;10.060;2022-08-04T07:26:59;99109.44;;;26.64;52.38
51972;BME280;37991;49.662;10.060;2022-08-04T07:29:25;99108.41;;;26.97;51.83
51972;BME280;37991;49.662;10.060;2022-08-04T07:31:52;99098.31;;;27.17;51.29
51972;BME280;37991;49.662;10.060;2022-08-04T07:34:19;99106.97;;;27.44;50.63
51972;BME280;37991;49.662;10.060;2022-08-04T07:36:46;99100.75;;;27.62;50.63
51972;BME280;37991;49.662;10.060;2022-08-04T07:39:15;99095.50;;;27.92;50.48
51972;BME280;37991;49.662;10.060;2022-08-04T07:41:41;99096.13;;;28.06;49.51
51972;BME280;37991;49.662;10.060;2022-08-04T07:44:08;99097.13;;;28.23;49.51
51972;BME280;37991;49.662;10.060;2022-08-04T07:46:35;99104.09;;;28.49;48.78
51972;BME280;37991;49.662;10.060;2022-08-04T07:49:01;99094.13;;;28.62;48.79
51972;BME280;37991;49.662;10.060;2022-08-04T07:51:27;99089.38;;;28.87;48.07
51972;BME280;37991;49.662;10.060;2022-08-04T07:53:55;99094.13;;;29.04;48.09
51972;BME280;37991;49.662;10.060;2022-08-04T07:56:21;99089.91;;;29.31;47.84
51972;BME280;37991;49.662;10.060;2022-08-04T07:58:46;99085.91;;;29.46;47.25
51972;BME280;37991;49.662;10.060;2022-08-04T08:01:12;99092.50;;;29.61;47.21
51972;BME280;37991;49.662;10.060;2022-08-04T08:03:39;99081.16;;;29.88;46.54
51972;BME280;37991;49.662;10.060;2022-08-04T08:06:05;99082.78;;;30.01;45.67
51972;BME280;37991;49.662;10.060;2022-08-04T08:08:30;99071.94;;;30.12;45.90
51972;BME280;37991;49.662;10.060;2022-08-04T08:10:55;99078.81;;;30.49;44.80
51972;BME280;37991;49.662;10.060;2022-08-04T08:13:21;99077.59;;;30.40;44.92
51972;BME280;37991;49.662;10.060;2022-08-04T08:15:47;99072.72;;;30.70;44.99
51972;BME280;37991;49.662;10.060;2022-08-04T08:18:13;99064.59;;;30.70;44.63
51972;BME280;37991;49.662;10.060;2022-08-04T08:20:39;99068.91;;;30.83;44.52
51972;BME280;37991;49.662;10.060;2022-08-04T08:23:07;99069.56;;;30.45;44.96
51972;BME280;37991;49.662;10.060;2022-08-04T08:25:35;99063.16;;;30.96;44.51
51972;BME280;37991;49.662;10.060;2022-08-04T08:28:04;99063.59;;;31.27;43.76
51972;BME280;37991;49.662;10.060;2022-08-04T08:30:31;99062.03;;;31.48;43.12
51972;BME280;37991;49.662;10.060;2022-08-04T08:32:59;99054.28;;;31.35;42.94
51972;BME280;37991;49.662;10.060;2022-08-04T08:35:26;99057.88;;;31.62;42.64
51972;BME280;37991;49.662;10.060;2022-08-04T08:37:57;99048.81;;;31.52;42.86
51972;BME280;37991;49.662;10.060;2022-08-04T08:44:09;99052.97;;;31.59;41.21
51972;BME280;37991;49.662;10.060;2022-08-04T08:49:25;99055.50;;;31.88;38.26
51972;BME280;37991;49.662;10.060;2022-08-04T08:55:28;99055.44;;;32.05;38.51
51972;BME280;37991;49.662;10.060;2022-08-04T08:58:26;99060.63;;;31.67;39.66
51972;BME280;37991;49.662;10.060;2022-08-04T09:01:08;99047.56;;;31.59;39.47
51972;BME280;37991;49.662;10.060;2022-08-04T09:03:50;99050.41;;;31.91;37.82
51972;BME280;37991;49.662;10.060;2022-08-04T09:11:57;99048.59;;;32.24;38.63
51972;BME280;37991;49.662;10.060;2022-08-04T09:14:38;99050.00;;;32.05;38.14
51972;BME280;37991;49.662;10.060;2022-08-04T09:17:12;99048.28;;;32.21;38.75
51972;BME280;37991;49.662;10.060;2022-08-04T09:19:54;99048.50;;;31.92;39.10
51972;BME280;37991;49.662;10.060;2022-08-04T09:23:40;99050.13;;;31.93;37.67
51972;BME280;37991;49.662;10.060;2022-08-04T09:25:40;99049.22;;;32.09;38.65
51972;BME280;37991;49.662;10.060;2022-08-04T09:28:18;99038.16;;;32.11;38.58
51972;BME280;37991;49.662;10.060;2022-08-04T09:30:48;99042.56;;;32.17;38.25
51972;BME280;37991;49.662;10.060;2022-08-04T09:36:09;99038.56;;;31.98;37.27
51972;BME280;37991;49.662;10.060;2022-08-04T09:38:50;99042.19;;;31.86;37.28
51972;BME280;37991;49.662;10.060;2022-08-04T09:41:36;99043.91;;;31.92;39.08
51972;BME280;37991;49.662;10.060;2022-08-04T09:47:12;99043.16;;;32.24;38.39
51972;BME280;37991;49.662;10.060;2022-08-04T09:49:49;99048.31;;;32.26;38.78
51972;BME280;37991;49.662;10.060;2022-08-04T09:52:27;99039.19;;;32.05;38.49
51972;BME280;37991;49.662;10.060;2022-08-04T09:55:17;99041.47;;;31.69;38.00
51972;BME280;37991;49.662;10.060;2022-08-04T09:58:04;99030.91;;;32.16;37.10
51972;BME280;37991;49.662;10.060;2022-08-04T10:00:44;99035.78;;;31.92;38.09
51972;BME280;37991;49.662;10.060;2022-08-04T10:03:12;99034.03;;;31.59;39.12
51972;BME280;37991;49.662;10.060;2022-08-04T10:06:04;99034.06;;;31.64;38.94
51972;BME280;37991;49.662;10.060;2022-08-04T10:11:38;99023.31;;;31.47;39.42
51972;BME280;37991;49.662;10.060;2022-08-04T10:14:25;99020.31;;;31.27;39.78
51972;BME280;37991;49.662;10.060;2022-08-04T10:20:02;99017.91;;;31.47;39.52
51972;BME280;37991;49.662;10.060;2022-08-04T10:22:32;99012.56;;;31.14;39.00
51972;BME280;37991;49.662;10.060;2022-08-04T10:25:15;99010.28;;;31.66;36.88
51972;BME280;37991;49.662;10.060;2022-08-04T10:27:50;98998.16;;;32.50;35.15
51972;BME280;37991;49.662;10.060;2022-08-04T10:30:18;99007.84;;;33.10;34.01
51972;BME280;37991;49.662;10.060;2022-08-04T10:32:49;99006.72;;;33.54;33.50
51972;BME280;37991;49.662;10.060;2022-08-04T10:35:22;99003.84;;;33.96;32.59
51972;BME280;37991;49.662;10.060;2022-08-04T10:46:02;98993.03;;;34.07;32.10
51972;BME280;37991;49.662;10.060;2022-08-04T10:51:50;98986.81;;;34.21;32.37
51972;BME280;37991;49.662;10.060;2022-08-04T10:54:26;98984.34;;;34.25;31.46
51972;BME280;37991;49.662;10.060;2022-08-04T10:57:04;98985.16;;;34.25;32.05
51972;BME280;37991;49.662;10.060;2022-08-04T10:59:42;98975.09;;;34.41;31.69
51972;BME280;37991;49.662;10.060;2022-08-04T11:02:24;98970.22;;;34.43;32.27
51972;BME280;37991;49.662;10.060;2022-08-04T11:05:09;98972.69;;;34.60;32.55
51972;BME280;37991;49.662;10.060;2022-08-04T11:07:38;98972.09;;;34.68;32.10
51972;BME280;37991;49.662;10.060;2022-08-04T11:10:06;98980.53;;;34.77;31.95
51972;BME280;37991;49.662;10.060;2022-08-04T11:12:33;98978.66;;;34.67;31.31
51972;BME280;37991;49.662;10.060;2022-08-04T11:15:05;98971.88;;;34.55;31.87
51972;BME280;37991;49.662;10.060;2022-08-04T11:17:42;98973.78;;;34.59;32.05
51972;BME280;37991;49.662;10.060;2022-08-04T11:23:00;98971.84;;;34.70;31.73
51972;BME280;37991;49.662;10.060;2022-08-04T11:25:32;98970.22;;;34.69;31.55
51972;BME280;37991;49.662;10.060;2022-08-04T11:28:21;98977.03;;;34.66;31.60
51972;BME280;37991;49.662;10.060;2022-08-04T11:30:55;98974.84;;;34.63;31.68
51972;BME280;37991;49.662;10.060;2022-08-04T11:36:18;98971.88;;;34.55;31.62
51972;BME280;37991;49.662;10.060;2022-08-04T11:41:47;98971.31;;;34.47;31.48
51972;BME280;37991;49.662;10.060;2022-08-04T11:45:03;98971.06;;;34.54;31.98
51972;BME280;37991;49.662;10.060;2022-08-04T11:47:17;98965.34;;;34.61;31.45
51972;BME280;37991;49.662;10.060;2022-08-04T11:49:48;98972.16;;;34.53;31.17
51972;BME280;37991;49.662;10.060;2022-08-04T11:52:18;98966.41;;;34.39;31.63
51972;BME280;37991;49.662;10.060;2022-08-04T11:54:44;98971.84;;;34.29;31.43
51972;BME280;37991;49.662;10.060;2022-08-04T11:57:11;98968.84;;;34.25;31.75
51972;BME280;37991;49.662;10.060;2022-08-04T11:59:37;98971.03;;;34.18;31.83
51972;BME280;37991;49.662;10.060;2022-08-04T12:04:57;98960.44;;;34.22;31.39
51972;BME280;37991;49.662;10.060;2022-08-04T12:08:02;98952.81;;;34.19;32.11
51972;BME280;37991;49.662;10.060;2022-08-04T12:16:02;98947.69;;;34.53;31.37
51972;BME280;37991;49.662;10.060;2022-08-04T12:18:49;98935.16;;;34.37;31.49
51972;BME280;37991;49.662;10.060;2022-08-04T12:21:24;98940.59;;;34.42;31.60
51972;BME280;37991;49.662;10.060;2022-08-04T12:23:55;98937.88;;;34.37;31.78
51972;BME280;37991;49.662;10.060;2022-08-04T12:26:26;98942.22;;;34.33;31.67
51972;BME280;37991;49.662;10.060;2022-08-04T12:28:57;98940.31;;;34.38;31.67
51972;BME280;37991;49.662;10.060;2022-08-04T12:31:30;98942.75;;;34.30;31.81
51972;BME280;37991;49.662;10.060;2022-08-04T12:34:08;98934.63;;;34.24;31.92
51972;BME280;37991;49.662;10.060;2022-08-04T12:39:18;98939.25;;;34.19;32.50
51972;BME280;37991;49.662;10.060;2022-08-04T12:41:53;98931.09;;;34.19;32.53
51972;BME280;37991;49.662;10.060;2022-08-04T12:44:20;98924.00;;;34.33;32.06
51972;BME280;37991;49.662;10.060;2022-08-04T12:46:47;98929.72;;;34.26;31.87
51972;BME280;37991;49.662;10.060;2022-08-04T12:49:14;98928.09;;;34.31;31.66
51972;BME280;37991;49.662;10.060;2022-08-04T12:51:43;98922.94;;;34.24;32.00
51972;BME280;37991;49.662;10.060;2022-08-04T12:54:09;98928.09;;;34.20;31.95
51972;BME280;37991;49.662;10.060;2022-08-04T12:56:37;98920.47;;;34.17;31.87
51972;BME280;37991;49.662;10.060;2022-08-04T12:59:09;98919.94;;;34.25;32.07
51972;BME280;37991;49.662;10.060;2022-08-04T13:01:36;98918.03;;;34.31;31.92
51972;BME280;37991;49.662;10.060;2022-08-04T13:04:14;98914.19;;;34.68;31.32
51972;BME280;37991;49.662;10.060;2022-08-04T13:06:41;98913.41;;;34.42;31.93
51972;BME280;37991;49.662;10.060;2022-08-04T13:09:15;98919.66;;;34.37;32.15
51972;BME280;37991;49.662;10.060;2022-08-04T13:11:48;98909.06;;;34.41;31.79
51972;BME280;37991;49.662;10.060;2022-08-04T13:14:14;98905.53;;;34.35;32.04
51972;BME280;37991;49.662;10.060;2022-08-04T13:16:41;98902.00;;;34.35;31.75
51972;BME280;37991;49.662;10.060;2022-08-04T13:19:08;98898.72;;;34.43;31.93
51972;BME280;37991;49.662;10.060;2022-08-04T13:21:39;98898.19;;;34.41;31.91
51972;BME280;37991;49.662;10.060;2022-08-04T13:24:11;98901.72;;;34.36;31.88
51972;BME280;37991;49.662;10.060;2022-08-04T13:26:46;98893.56;;;34.36;31.88
51972;BME280;37991;49.662;10.060;2022-08-04T13:29:13;98886.25;;;34.21;32.24
51972;BME280;37991;49.662;10.060;2022-08-04T13:31:42;98893.88;;;34.09;32.18
51972;BME280;37991;49.662;10.060;2022-08-04T13:34:09;98889.78;;;34.07;31.97
51972;BME280;37991;49.662;10.060;2022-08-04T13:36:36;98887.63;;;34.09;31.54
51972;BME280;37991;49.662;10.060;2022-08-04T13:39:07;98885.41;;;34.26;31.45
51972;BME280;37991;49.662;10.060;2022-08-04T13:41:44;98875.34;;;34.01;31.98
51972;BME280;37991;49.662;10.060;2022-08-04T13:44:10;98874.03;;;34.09;32.31
51972;BME280;37991;49.662;10.060;2022-08-04T13:46:55;98878.06;;;34.01;31.26
51972;BME280;37991;49.662;10.060;2022-08-04T13:49:22;98870.22;;;34.05;31.49
51972;BME280;37991;49.662;10.060;2022-08-04T13:51:50;98861.00;;;34.06;31.46
51972;BME280;37991;49.662;10.060;2022-08-04T13:54:16;98860.16;;;34.31;30.97
51972;BME280;37991;49.662;10.060;2022-08-04T13:56:54;98860.72;;;34.28;30.84
51972;BME280;37991;49.662;10.060;2022-08-04T13:59:25;98864.78;;;34.15;31.49
51972;BME280;37991;49.662;10.060;2022-08-04T14:02:02;98863.97;;;34.09;31.23
51972;BME280;37991;49.662;10.060;2022-08-04T14:04:30;98860.97;;;34.00;31.12
51972;BME280;37991;49.662;10.060;2022-08-04T14:07:11;98860.44;;;33.98;31.45
51972;BME280;37991;49.662;10.060;2022-08-04T14:09:38;98862.59;;;33.96;31.98
51972;BME280;37991;49.662;10.060;2022-08-04T14:12:12;98857.72;;;33.98;31.57
51972;BME280;37991;49.662;10.060;2022-08-04T14:14:49;98860.72;;;34.07;31.25
51972;BME280;37991;49.662;10.060;2022-08-04T14:17:18;98854.19;;;34.03;31.35
51972;BME280;37991;49.662;10.060;2022-08-04T14:19:53;98854.75;;;34.05;31.92
51972;BME280;37991;49.662;10.060;2022-08-04T14:27:51;98844.66;;;34.31;31.72
51972;BME280;37991;49.662;10.060;2022-08-04T14:30:23;98845.41;;;34.52;30.94
51972;BME280;37991;49.662;10.060;2022-08-04T14:32:56;98839.72;;;34.48;31.06
51972;BME280;37991;49.662;10.060;2022-08-04T14:35:22;98844.63;;;34.46;31.14
51972;BME280;37991;49.662;10.060;2022-08-04T14:37:59;98841.06;;;34.51;31.25
51972;BME280;37991;49.662;10.060;2022-08-04T14:40:26;98832.66;;;34.47;31.22
51972;BME280;37991;49.662;10.060;2022-08-04T14:42:53;98837.81;;;34.49;31.17
51972;BME280;37991;49.662;10.060;2022-08-04T14:45:26;98833.22;;;34.55;30.64
51972;BME280;37991;49.662;10.060;2022-08-04T14:47:52;98843.53;;;34.58;30.58
51972;BME280;37991;49.662;10.060;2022-08-04T14:50:17;98833.75;;;34.46;31.13
51972;BME280;37991;49.662;10.060;2022-08-04T14:52:43;98834.31;;;34.38;30.95
51972;BME280;37991;49.662;10.060;2022-08-04T14:55:19;98827.78;;;34.39;30.98
51972;BME280;37991;49.662;10.060;2022-08-04T14:57:45;98831.84;;;34.42;31.21
51972;BME280;37991;49.662;10.060;2022-08-04T15:00:11;98829.44;;;34.40;30.82
51972;BME280;37991;49.662;10.060;2022-08-04T15:02:48;98828.06;;;34.38;30.51
51972;BME280;37991;49.662;10.060;2022-08-04T15:05:13;98831.03;;;34.36;30.35
51972;BME280;37991;49.662;10.060;2022-08-04T15:07:40;98825.00;;;34.70;29.81
51972;BME280;37991;49.662;10.060;2022-08-04T15:10:05;98832.66;;;34.47;30.42
51972;BME280;37991;49.662;10.060;2022-08-04T15:12:31;98832.13;;;34.40;30.53
51972;BME280;37991;49.662;10.060;2022-08-04T15:14:56;98829.72;;;34.34;30.37
51972;BME280;37991;49.662;10.060;2022-08-04T15:17:21;98822.38;;;34.34;30.69
51972;BME280;37991;49.662;10.060;2022-08-04T15:19:47;98832.69;;;34.37;30.54
51972;BME280;37991;49.662;10.060;2022-08-04T15:22:13;98818.59;;;34.25;30.34
51972;BME280;37991;49.662;10.060;2022-08-04T15:24:38;98818.06;;;34.18;30.80
51972;BME280;37991;49.662;10.060;2022-08-04T15:27:04;98817.78;;;34.14;30.58
51972;BME280;37991;49.662;10.060;2022-08-04T15:29:42;98814.78;;;34.11;30.40
51972;BME280;37991;49.662;10.060;2022-08-04T15:32:12;98816.97;;;34.19;30.30
51972;BME280;37991;49.662;10.060;2022-08-04T15:35:03;98814.25;;;34.24;30.02
51972;BME280;37991;49.662;10.060;2022-08-04T15:40:44;98812.63;;;34.02;30.54
51972;BME280;37991;49.662;10.060;2022-08-04T15:43:27;98818.06;;;34.18;30.25
51972;BME280;37991;49.662;10.060;2022-08-04T15:46:00;98806.34;;;34.17;30.39
51972;BME280;37991;49.662;10.060;2022-08-04T15:48:29;98800.41;;;34.15;30.22
51972;BME280;37991;49.662;10.060;2022-08-04T15:53:21;98805.00;;;34.10;30.36
51972;BME280;37991;49.662;10.060;2022-08-04T15:55:46;98801.22;;;34.06;30.30
51972;BME280;37991;49.662;10.060;2022-08-04T15:58:13;98805.00;;;34.05;29.99
51972;BME280;37991;49.662;10.060;2022-08-04T16:03:50;98809.63;;;33.89;30.52
51972;BME280;37991;49.662;10.060;2022-08-04T16:14:07;98804.19;;;33.84;29.74
51972;BME280;37991;49.662;10.060;2022-08-04T16:19:08;98781.66;;;33.78;30.05
51972;BME280;37991;49.662;10.060;2022-08-04T16:21:45;98791.19;;;33.70;29.96
51972;BME280;37991;49.662;10.060;2022-08-04T16:26:51;98787.91;;;33.58;30.25
51972;BME280;37991;49.662;10.060;2022-08-04T16:29:38;98790.63;;;33.58;30.39
51972;BME280;37991;49.662;10.060;2022-08-04T16:34:33;98784.94;;;33.54;30.46
51972;BME280;37991;49.662;10.060;2022-08-04T16:37:00;98788.72;;;33.53;30.52